Time;durP1;ratioP1;P1;durP2;ratioP2;P2;SDS_P1;SDS_P2;PMS_P1;PMS_P2;Temp;Humidity;BMP_temperature;BMP_pressure;BME280_temperature;BME280_humidity;BME280_pressure;Samples;Min_cycle;Max_cycle;Signal;HPM_P1;HPM_P2
2023/07/19 00:01:39;;;;;;;2.13;1.20;;;18.50;99.90;;;;;;5056246;28;20050;-43
2023/07/19 00:04:04;;;;;;;2.83;1.20;;;18.50;99.90;;;;;;5063375;28;20025;-42
2023/07/19 00:06:30;;;;;;;2.05;1.05;;;18.50;99.90;;;;;;5053145;28;20104;-40
2023/07/19 00:08:56;;;;;;;4.95;0.93;;;18.50;99.90;;;;;;5059537;28;20031;-40
2023/07/19 00:11:22;;;;;;;1.30;0.93;;;18.50;99.90;;;;;;5069385;28;20040;-41
2023/07/19 00:13:47;;;;;;;1.30;1.00;;;18.40;99.90;;;;;;5052559;28;20029;-40
2023/07/19 00:16:13;;;;;;;3.88;1.02;;;18.40;99.90;;;;;;5053354;28;20081;-40
2023/07/19 00:18:39;;;;;;;3.13;0.57;;;18.30;99.90;;;;;;5052324;28;20470;-41
2023/07/19 00:21:04;;;;;;;0.93;0.70;;;18.30;99.90;;;;;;5052164;28;20121;-45
2023/07/19 00:23:30;;;;;;;1.08;0.93;;;18.30;99.90;;;;;;5059009;28;20056;-40
2023/07/19 00:25:56;;;;;;;2.35;1.08;;;18.20;99.90;;;;;;5052252;28;20028;-43
2023/07/19 00:28:21;;;;;;;2.50;1.23;;;18.20;99.90;;;;;;5052189;28;20429;-40
2023/07/19 00:30:47;;;;;;;3.17;1.10;;;18.10;99.90;;;;;;5054128;28;20500;-39
2023/07/19 00:33:12;;;;;;;7.00;1.70;;;18.00;99.90;;;;;;5063892;28;20021;-39
2023/07/19 00:35:41;;;;;;;2.05;0.90;;;17.90;99.90;;;;;;5051571;28;20060;-41
2023/07/19 00:38:07;;;;;;;3.42;1.00;;;17.80;99.90;;;;;;5058992;28;20028;-40
2023/07/19 00:40:33;;;;;;;1.83;0.90;;;17.80;99.90;;;;;;5073870;28;20566;-40
2023/07/19 00:42:59;;;;;;;3.83;2.03;;;17.80;99.90;;;;;;5060067;28;20059;-41
2023/07/19 00:45:27;;;;;;;3.47;1.50;;;17.70;99.90;;;;;;5051035;28;20053;-42
2023/07/19 00:47:56;;;;;;;3.10;1.40;;;17.70;99.90;;;;;;5054124;28;20032;-42
2023/07/19 00:50:23;;;;;;;1.77;1.30;;;17.60;99.90;;;;;;5053790;28;20397;-40
2023/07/19 00:52:51;;;;;;;5.07;1.67;;;17.60;99.90;;;;;;5048670;28;20075;-42
2023/07/19 00:55:18;;;;;;;1.20;1.10;;;17.60;99.90;;;;;;5047181;28;20540;-43
2023/07/19 00:57:43;;;;;;;6.35;1.40;;;17.70;99.90;;;;;;5064007;28;20144;-40
2023/07/19 01:00:10;;;;;;;1.15;0.90;;;17.60;99.90;;;;;;5049647;28;20107;-43
2023/07/19 01:02:36;;;;;;;3.53;1.35;;;17.60;99.90;;;;;;5050027;28;20024;-44
2023/07/19 01:05:02;;;;;;;4.63;1.20;;;17.70;99.90;;;;;;5047934;28;20460;-42
2023/07/19 01:07:28;;;;;;;1.88;1.10;;;17.70;99.90;;;;;;5055907;28;20328;-43
2023/07/19 01:09:54;;;;;;;2.70;1.20;;;17.60;99.90;;;;;;5070157;28;20107;-42
2023/07/19 01:12:20;;;;;;;2.05;1.15;;;17.60;99.90;;;;;;5053920;28;20124;-40
2023/07/19 01:14:46;;;;;;;2.13;1.20;;;17.60;99.90;;;;;;5052787;28;20033;-40
2023/07/19 01:17:11;;;;;;;2.95;1.30;;;17.60;99.90;;;;;;5052609;28;20108;-43
2023/07/19 01:19:38;;;;;;;3.78;1.60;;;17.70;99.90;;;;;;5055132;28;20087;-40
2023/07/19 01:22:05;;;;;;;1.58;0.82;;;17.60;99.90;;;;;;5050454;28;20037;-40
2023/07/19 01:24:31;;;;;;;1.98;1.13;;;17.60;99.90;;;;;;5073134;28;20103;-43
2023/07/19 01:26:57;;;;;;;7.32;1.20;;;17.60;99.90;;;;;;5050562;28;20104;-42
2023/07/19 01:29:23;;;;;;;5.47;1.00;;;17.70;99.90;;;;;;5057099;28;20029;-44
2023/07/19 01:31:48;;;;;;;2.72;1.20;;;17.60;99.90;;;;;;5059148;28;20021;-41
2023/07/19 01:34:14;;;;;;;3.72;1.27;;;17.60;99.90;;;;;;5064927;28;20024;-41
2023/07/19 01:36:40;;;;;;;2.90;1.45;;;17.70;99.90;;;;;;5057289;28;20492;-41
2023/07/19 01:39:05;;;;;;;2.08;1.30;;;17.60;99.90;;;;;;5064814;28;20036;-41
2023/07/19 01:41:31;;;;;;;5.05;1.17;;;17.60;99.90;;;;;;5060942;28;20021;-40
2023/07/19 01:43:56;;;;;;;1.20;1.10;;;17.60;99.90;;;;;;5059171;28;20032;-40
2023/07/19 01:46:22;;;;;;;2.65;1.30;;;17.70;99.90;;;;;;5059405;28;20485;-39
2023/07/19 01:48:48;;;;;;;1.60;1.20;;;17.60;99.90;;;;;;5056305;28;20044;-41
2023/07/19 01:51:14;;;;;;;1.30;1.17;;;17.60;99.90;;;;;;5052151;28;20017;-40
2023/07/19 01:53:39;;;;;;;3.45;1.70;;;17.70;99.90;;;;;;5050489;28;20029;-43
2023/07/19 01:56:05;;;;;;;7.68;2.13;;;17.70;99.90;;;;;;5050732;28;20027;-43
2023/07/19 01:58:31;;;;;;;3.80;1.88;;;17.70;99.90;;;;;;5051835;28;20029;-41
2023/07/19 02:00:56;;;;;;;3.92;2.20;;;17.70;99.90;;;;;;5052751;28;20021;-42
2023/07/19 02:03:22;;;;;;;3.75;2.25;;;17.70;99.90;;;;;;5050554;28;20500;-39
2023/07/19 02:06:00;;;;;;;5.95;2.78;;;17.70;99.90;;;;;;5050635;28;20056;-40
2023/07/19 02:08:26;;;;;;;8.48;3.10;;;17.80;99.90;;;;;;5050385;28;20036;-43
2023/07/19 02:10:54;;;;;;;6.15;2.55;;;17.80;99.90;;;;;;5050708;28;20486;-39
2023/07/19 02:13:19;;;;;;;9.63;3.13;;;17.80;99.90;;;;;;5063215;28;20436;-39
2023/07/19 02:15:45;;;;;;;4.40;2.40;;;17.80;99.90;;;;;;5064770;28;20098;-42
2023/07/19 02:18:11;;;;;;;5.25;2.90;;;17.70;99.90;;;;;;5062872;28;20489;-40
2023/07/19 02:20:43;;;;;;;10.38;3.00;;;17.70;99.90;;;;;;5064905;28;20124;-39
2023/07/19 02:23:08;;;;;;;22.75;3.50;;;17.70;99.90;;;;;;5037743;28;20521;-45
2023/07/19 02:25:38;;;;;;;6.65;3.20;;;17.70;99.90;;;;;;5050256;28;20040;-41
2023/07/19 02:28:04;;;;;;;5.57;3.05;;;17.60;99.90;;;;;;5054894;28;20028;-41
2023/07/19 02:30:30;;;;;;;6.40;2.70;;;17.60;99.90;;;;;;5055805;28;20398;-41
2023/07/19 02:32:55;;;;;;;9.52;3.13;;;17.60;99.90;;;;;;5051905;28;20017;-40
2023/07/19 02:35:21;;;;;;;8.15;3.38;;;17.60;99.90;;;;;;5055045;28;20037;-42
2023/07/19 02:37:47;;;;;;;8.10;3.40;;;17.50;99.90;;;;;;5054542;28;20481;-41
2023/07/19 02:40:12;;;;;;;9.75;3.92;;;17.50;99.90;;;;;;5054193;28;20037;-40
2023/07/19 02:42:38;;;;;;;11.50;3.45;;;17.50;99.90;;;;;;5054347;28;20071;-40
2023/07/19 02:45:04;;;;;;;9.63;3.72;;;17.50;99.90;;;;;;5054629;28;20020;-41
2023/07/19 02:47:32;;;;;;;10.15;3.53;;;17.50;99.90;;;;;;5054836;28;20526;-41
2023/07/19 02:49:57;;;;;;;4.00;2.80;;;17.60;99.90;;;;;;5055994;28;20021;-39
2023/07/19 02:52:23;;;;;;;7.97;3.17;;;17.50;99.90;;;;;;5049920;28;20039;-42
2023/07/19 02:54:48;;;;;;;5.78;3.03;;;17.60;99.90;;;;;;5052900;28;20028;-43
2023/07/19 02:57:14;;;;;;;8.20;3.47;;;17.60;99.90;;;;;;5065754;28;20039;-39
2023/07/19 02:59:39;;;;;;;5.88;3.67;;;17.60;99.90;;;;;;5057179;28;20025;-41
2023/07/19 03:02:05;;;;;;;5.75;3.13;;;17.50;99.90;;;;;;5051919;28;20025;-43
2023/07/19 03:04:31;;;;;;;6.35;3.28;;;17.60;99.90;;;;;;5055381;28;20074;-43
2023/07/19 03:06:57;;;;;;;5.28;2.58;;;17.50;99.90;;;;;;5066767;28;20099;-40
2023/07/19 03:09:23;;;;;;;7.88;2.83;;;17.40;99.90;;;;;;5071690;28;20435;-39
2023/07/19 03:11:48;;;;;;;8.02;3.10;;;17.40;99.90;;;;;;5055174;28;20104;-39
2023/07/19 03:14:15;;;;;;;10.77;3.78;;;17.30;99.90;;;;;;5054316;28;20040;-41
2023/07/19 03:16:42;;;;;;;10.60;3.97;;;17.30;99.90;;;;;;5060946;28;20033;-40
2023/07/19 03:19:08;;;;;;;5.78;3.83;;;17.30;99.90;;;;;;5055775;28;20028;-39
2023/07/19 03:21:34;;;;;;;7.72;3.35;;;17.30;99.90;;;;;;5061244;28;20400;-41
2023/07/19 03:23:59;;;;;;;7.18;3.80;;;17.40;99.90;;;;;;5059827;28;20168;-41
2023/07/19 03:26:25;;;;;;;7.28;3.83;;;17.40;99.90;;;;;;5052816;28;20029;-41
2023/07/19 03:28:50;;;;;;;9.95;3.75;;;17.30;99.90;;;;;;5055575;28;20362;-42
2023/07/19 03:31:16;;;;;;;6.20;3.42;;;17.30;99.90;;;;;;5054467;28;20013;-40
2023/07/19 03:33:42;;;;;;;8.70;4.13;;;17.20;99.90;;;;;;5053550;28;20021;-41
2023/07/19 03:36:07;;;;;;;8.38;4.20;;;17.30;99.90;;;;;;5053977;28;20446;-40
2023/07/19 03:38:33;;;;;;;6.70;4.18;;;17.20;99.90;;;;;;5071426;28;20016;-40
2023/07/19 03:41:08;;;;;;;6.53;4.25;;;17.20;99.90;;;;;;5053213;28;20032;-45
2023/07/19 03:43:35;;;;;;;6.20;3.58;;;17.20;99.90;;;;;;5062080;28;20037;-39
2023/07/19 03:46:01;;;;;;;7.00;4.07;;;17.20;99.90;;;;;;5075124;28;20021;-39
2023/07/19 03:48:26;;;;;;;13.57;4.20;;;17.20;99.90;;;;;;5072081;28;20476;-39
2023/07/19 03:51:00;;;;;;;11.82;4.30;;;17.20;99.90;;;;;;5067618;28;20377;-39
2023/07/19 03:53:26;;;;;;;11.63;4.47;;;17.20;99.90;;;;;;5047044;28;20454;-40
2023/07/19 03:55:55;;;;;;;8.77;4.20;;;17.20;99.90;;;;;;5048744;28;20072;-42
2023/07/19 03:58:25;;;;;;;8.45;3.92;;;17.10;99.90;;;;;;5054536;28;20052;-40
2023/07/19 04:00:55;;;;;;;6.53;3.78;;;17.10;99.90;;;;;;5054674;28;20037;-44
2023/07/19 04:03:21;;;;;;;11.63;4.13;;;17.10;99.90;;;;;;5052717;28;20028;-42
2023/07/19 04:05:47;;;;;;;11.10;4.45;;;17.10;99.90;;;;;;5050871;28;20381;-43
2023/07/19 04:08:14;;;;;;;7.35;3.88;;;17.10;99.90;;;;;;5051781;28;20020;-41
2023/07/19 04:10:40;;;;;;;10.27;3.83;;;17.10;99.90;;;;;;5052113;28;20132;-39
2023/07/19 04:13:06;;;;;;;7.90;4.10;;;17.10;99.90;;;;;;5046077;28;20747;-43
2023/07/19 04:15:32;;;;;;;8.63;3.55;;;17.10;99.90;;;;;;5049947;28;20036;-41
2023/07/19 04:17:58;;;;;;;9.93;4.45;;;17.20;99.90;;;;;;5054251;28;20032;-41
2023/07/19 04:20:25;;;;;;;8.90;4.45;;;17.20;99.90;;;;;;5049011;28;20037;-39
2023/07/19 04:22:51;;;;;;;4.55;3.45;;;17.20;99.90;;;;;;5050624;28;20025;-42
2023/07/19 04:25:18;;;;;;;5.85;3.45;;;17.30;99.90;;;;;;5053143;28;20032;-42
2023/07/19 04:27:44;;;;;;;10.23;4.23;;;17.30;99.90;;;;;;5053822;28;20024;-40
2023/07/19 04:30:10;;;;;;;7.70;4.38;;;17.30;99.90;;;;;;5050949;28;20708;-40
2023/07/19 04:32:35;;;;;;;8.07;4.50;;;17.30;99.90;;;;;;5049232;28;20043;-40
2023/07/19 04:35:01;;;;;;;9.02;4.53;;;17.30;99.90;;;;;;5050748;28;20104;-40
2023/07/19 04:37:27;;;;;;;5.93;3.65;;;17.30;99.90;;;;;;5052074;28;20029;-41
2023/07/19 04:39:53;;;;;;;5.85;3.38;;;17.40;99.90;;;;;;5053907;28;20029;-42
2023/07/19 04:42:21;;;;;;;11.25;5.07;;;17.40;99.90;;;;;;5049963;28;20523;-40
2023/07/19 04:44:47;;;;;;;7.35;3.67;;;17.40;99.90;;;;;;5048192;28;20013;-44
2023/07/19 04:47:12;;;;;;;11.25;4.88;;;17.50;99.90;;;;;;5050531;28;20618;-39
2023/07/19 04:49:38;;;;;;;8.73;3.72;;;17.50;99.90;;;;;;5053464;28;20021;-47
2023/07/19 04:52:04;;;;;;;7.00;3.63;;;17.60;99.90;;;;;;5048555;28;20100;-39
2023/07/19 04:54:30;;;;;;;6.75;4.38;;;17.60;99.90;;;;;;5049379;28;20055;-41
2023/07/19 04:56:56;;;;;;;12.63;4.72;;;17.70;99.90;;;;;;5053391;28;20108;-44
2023/07/19 04:59:22;;;;;;;8.27;3.90;;;17.70;99.90;;;;;;5050722;28;20490;-40
2023/07/19 05:01:48;;;;;;;4.35;3.83;;;17.80;99.90;;;;;;5053031;28;20047;-39
2023/07/19 05:04:14;;;;;;;4.22;2.83;;;17.80;99.90;;;;;;5053783;28;20022;-44
2023/07/19 05:06:39;;;;;;;7.78;3.40;;;17.90;99.90;;;;;;5044825;28;20040;-39
2023/07/19 05:09:08;;;;;;;6.82;3.42;;;17.90;99.90;;;;;;5044772;28;20029;-43
2023/07/19 05:11:34;;;;;;;5.03;3.30;;;18.00;99.90;;;;;;5051808;28;20112;-41
2023/07/19 05:13:59;;;;;;;7.82;3.05;;;18.00;99.90;;;;;;5053311;28;20568;-40
2023/07/19 05:16:25;;;;;;;4.40;3.40;;;18.10;99.90;;;;;;5049424;28;20500;-41
2023/07/19 05:18:52;;;;;;;3.30;2.50;;;18.10;99.90;;;;;;5050264;28;20393;-41
2023/07/19 05:21:18;;;;;;;8.40;3.38;;;18.10;99.90;;;;;;5048058;28;20544;-43
2023/07/19 05:23:43;;;;;;;5.32;3.42;;;18.20;99.90;;;;;;5053053;28;20053;-41
2023/07/19 05:26:09;;;;;;;3.70;2.70;;;18.20;99.90;;;;;;5053414;28;20009;-42
2023/07/19 05:28:35;;;;;;;4.43;2.50;;;18.30;99.90;;;;;;5053126;28;20484;-40
2023/07/19 05:31:09;;;;;;;3.13;2.83;;;18.30;99.90;;;;;;5053344;28;20044;-41
2023/07/19 05:33:34;;;;;;;5.43;2.90;;;18.40;99.90;;;;;;5053278;28;20025;-40
2023/07/19 05:36:00;;;;;;;6.10;2.72;;;18.40;99.90;;;;;;5051280;28;20055;-40
2023/07/19 05:38:27;;;;;;;4.65;2.20;;;18.40;99.90;;;;;;5052919;28;20024;-39
2023/07/19 05:40:52;;;;;;;9.80;3.63;;;18.50;99.90;;;;;;5052859;28;20029;-40
2023/07/19 05:43:18;;;;;;;7.68;2.65;;;18.50;99.90;;;;;;5052917;28;20488;-39
2023/07/19 05:45:44;;;;;;;8.23;2.67;;;18.50;99.90;;;;;;5052358;28;20023;-41
2023/07/19 05:48:10;;;;;;;7.63;2.90;;;18.60;99.90;;;;;;5052611;28;20043;-39
2023/07/19 05:50:37;;;;;;;2.78;2.15;;;18.60;99.90;;;;;;5052823;28;20104;-42
2023/07/19 05:53:03;;;;;;;7.23;2.67;;;18.60;99.90;;;;;;5050831;28;20551;-41
2023/07/19 05:55:28;;;;;;;5.55;2.17;;;18.70;99.90;;;;;;5052434;28;20033;-42
2023/07/19 05:57:54;;;;;;;2.85;1.98;;;18.80;99.90;;;;;;5052970;28;20393;-40
2023/07/19 06:00:24;;;;;;;7.45;2.65;;;18.80;99.90;;;;;;5048905;28;20029;-40
2023/07/19 06:02:52;;;;;;;5.93;2.72;;;18.80;99.90;;;;;;5032704;28;20034;-41
2023/07/19 06:05:17;;;;;;;;;;;18.90;99.90;;;;;;5033150;28;20041;-40
2023/07/19 06:07:45;;;;;;;3.05;2.00;;;18.90;99.90;;;;;;5032689;28;19905;-42
2023/07/19 06:10:10;;;;;;;6.43;2.25;;;19.00;99.90;;;;;;5041546;28;20036;-40
2023/07/19 06:12:36;;;;;;;6.65;2.58;;;19.20;99.90;;;;;;5052481;28;20282;-39
2023/07/19 06:15:02;;;;;;;6.72;2.65;;;19.40;99.90;;;;;;5052488;28;20021;-39
2023/07/19 06:17:27;;;;;;;8.45;2.20;;;19.50;99.90;;;;;;5052784;28;20147;-40
2023/07/19 06:19:53;;;;;;;7.45;3.00;;;19.60;99.90;;;;;;5052368;28;20033;-39
2023/07/19 06:22:19;;;;;;;7.50;2.88;;;19.60;99.90;;;;;;5052375;28;20548;-39
2023/07/19 06:24:44;;;;;;;3.50;1.80;;;19.70;99.90;;;;;;5052065;28;20485;-38
2023/07/19 06:27:10;;;;;;;6.70;2.03;;;20.00;99.90;;;;;;5050387;28;20389;-42
2023/07/19 06:29:36;;;;;;;5.15;2.00;;;20.60;99.90;;;;;;5052091;28;20040;-42
2023/07/19 06:32:01;;;;;;;2.65;1.98;;;21.50;99.90;;;;;;5052151;28;20101;-39
2023/07/19 06:34:27;;;;;;;8.60;2.55;;;21.70;99.90;;;;;;5052347;28;20112;-42
2023/07/19 06:36:53;;;;;;;3.55;1.95;;;21.50;99.90;;;;;;5052295;28;20508;-41
2023/07/19 06:39:19;;;;;;;3.70;1.92;;;21.50;99.90;;;;;;5051680;28;20112;-40
2023/07/19 06:41:45;;;;;;;5.20;2.00;;;21.50;99.90;;;;;;5053030;28;20016;-39
2023/07/19 06:44:12;;;;;;;7.28;1.98;;;21.60;99.90;;;;;;5051431;28;20029;-44
2023/07/19 06:46:38;;;;;;;4.75;2.28;;;21.60;99.90;;;;;;5052210;28;20056;-40
2023/07/19 06:49:04;;;;;;;3.30;1.50;;;21.70;99.90;;;;;;5050527;28;20481;-40
2023/07/19 06:51:29;;;;;;;5.03;1.73;;;21.80;99.90;;;;;;5052281;28;20417;-41
2023/07/19 06:53:55;;;;;;;3.75;1.67;;;22.60;99.90;;;;;;5051667;28;20032;-40
2023/07/19 06:56:21;;;;;;;8.15;2.10;;;23.40;99.90;;;;;;5052145;28;20474;-41
2023/07/19 06:58:46;;;;;;;4.07;1.85;;;24.00;99.90;;;;;;5051514;28;20553;-44
2023/07/19 07:01:12;;;;;;;1.52;1.38;;;24.40;99.90;;;;;;5054985;28;20025;-47
2023/07/19 07:03:38;;;;;;;1.25;1.15;;;24.50;99.90;;;;;;5055519;28;20025;-44
2023/07/19 07:06:03;;;;;;;3.25;1.50;;;24.80;99.90;;;;;;5055960;28;20457;-40
2023/07/19 07:08:29;;;;;;;4.55;1.50;;;24.80;99.90;;;;;;5054623;28;20390;-42
2023/07/19 07:10:55;;;;;;;6.93;1.95;;;24.80;99.90;;;;;;5055621;28;20032;-41
2023/07/19 07:13:20;;;;;;;5.38;1.27;;;24.40;99.90;;;;;;5055861;28;20017;-39
2023/07/19 07:15:46;;;;;;;6.57;1.52;;;23.80;99.90;;;;;;5055651;28;20025;-38
2023/07/19 07:18:12;;;;;;;4.38;1.88;;;23.70;99.90;;;;;;5054694;28;20024;-41
2023/07/19 07:20:37;;;;;;;3.08;1.05;;;23.70;99.90;;;;;;5053763;28;20139;-39
2023/07/19 07:23:03;;;;;;;4.60;1.90;;;23.60;99.90;;;;;;5053362;28;20477;-39
2023/07/19 07:25:30;;;;;;;6.25;2.05;;;23.50;99.90;;;;;;5054363;28;20715;-40
2023/07/19 07:27:57;;;;;;;7.82;2.00;;;23.40;99.90;;;;;;5035727;28;20160;-40
2023/07/19 07:30:23;;;;;;;5.38;2.10;;;23.80;99.90;;;;;;5035751;28;20032;-40
2023/07/19 07:32:49;;;;;;;2.80;1.17;;;24.20;99.90;;;;;;5053882;28;20485;-38
2023/07/19 07:35:15;;;;;;;6.00;2.03;;;24.40;99.90;;;;;;5054598;28;20495;-40
2023/07/19 07:37:41;;;;;;;2.30;1.40;;;24.50;99.90;;;;;;5054593;28;20081;-40
2023/07/19 07:40:08;;;;;;;1.92;1.13;;;24.60;99.90;;;;;;5052030;28;20416;-44
2023/07/19 07:42:34;;;;;;;2.95;1.40;;;24.40;99.90;;;;;;5051800;28;20025;-42
2023/07/19 07:45:00;;;;;;;3.67;1.00;;;24.10;99.90;;;;;;5052863;28;20083;-41
2023/07/19 07:47:26;;;;;;;3.25;1.50;;;24.00;99.90;;;;;;5066322;28;20031;-39
2023/07/19 07:49:51;;;;;;;3.25;1.20;;;23.80;99.90;;;;;;5068771;28;20059;-43
2023/07/19 07:52:17;;;;;;;1.33;1.15;;;23.80;99.90;;;;;;5050033;28;20074;-41
2023/07/19 07:54:44;;;;;;;3.50;1.85;;;23.90;99.90;;;;;;5049232;28;20506;-39
2023/07/19 07:57:09;;;;;;;3.10;1.60;;;23.90;99.90;;;;;;5045715;28;20031;-41
2023/07/19 07:59:35;;;;;;;3.80;1.73;;;23.80;99.90;;;;;;5067425;28;20036;-51
2023/07/19 08:02:01;;;;;;;2.47;1.30;;;23.30;99.90;;;;;;5069510;28;20438;-45
2023/07/19 08:04:27;;;;;;;3.63;1.70;;;23.10;99.90;;;;;;5073081;28;20017;-40
2023/07/19 08:06:53;;;;;;;10.10;2.67;;;23.20;99.90;;;;;;5073020;28;20389;-43
2023/07/19 08:09:19;;;;;;;4.40;1.52;;;23.30;99.90;;;;;;5073988;28;20097;-43
2023/07/19 08:11:45;;;;;;;5.38;1.75;;;23.10;99.90;;;;;;5073045;28;20107;-44
2023/07/19 08:14:11;;;;;;;1.63;1.40;;;23.10;99.90;;;;;;5074573;28;20462;-46
2023/07/19 08:16:36;;;;;;;2.97;1.42;;;23.10;99.90;;;;;;5071371;28;20028;-41
2023/07/19 08:19:02;;;;;;;8.18;1.88;;;23.20;99.90;;;;;;5046832;28;20456;-45
2023/07/19 08:21:28;;;;;;;4.55;2.10;;;22.50;99.90;;;;;;5047996;28;20033;-40
2023/07/19 08:23:55;;;;;;;5.07;2.38;;;21.90;99.90;;;;;;5052409;28;20021;-40
2023/07/19 08:26:24;;;;;;;2.50;1.42;;;21.60;99.90;;;;;;5051069;28;20044;-42
2023/07/19 08:28:50;;;;;;;3.28;1.83;;;21.30;99.90;;;;;;5052773;28;20036;-39
2023/07/19 08:31:16;;;;;;;8.07;2.22;;;21.10;99.90;;;;;;5053046;28;20378;-40
2023/07/19 08:33:43;;;;;;;3.60;2.03;;;21.10;99.90;;;;;;5051193;28;20025;-42
2023/07/19 08:36:08;;;;;;;5.33;2.07;;;20.90;99.90;;;;;;5052218;28;20032;-40
2023/07/19 08:38:34;;;;;;;5.80;1.83;;;20.80;99.90;;;;;;5050294;28;20558;-42
2023/07/19 08:41:01;;;;;;;7.35;2.40;;;20.80;99.90;;;;;;5056167;28;20037;-44
2023/07/19 08:43:27;;;;;;;;;;;20.60;99.90;;;;;;5048019;28;20029;-43
2023/07/19 08:45:54;;;;;;;7.35;2.78;;;20.50;99.90;;;;;;5050626;28;19916;-43
2023/07/19 08:48:20;;;;;;;8.27;2.13;;;20.70;99.90;;;;;;5048584;28;20021;-39
2023/07/19 08:50:56;;;;;;;2.33;1.90;;;20.80;99.90;;;;;;5056602;28;20103;-41
2023/07/19 08:53:24;;;;;;;4.55;1.52;;;21.10;99.90;;;;;;5045584;28;20040;-41
2023/07/19 08:55:50;;;;;;;4.35;2.30;;;21.10;99.90;;;;;;5047993;28;20040;-39
2023/07/19 08:58:19;;;;;;;10.40;2.22;;;21.20;99.90;;;;;;5071559;28;20028;-40
2023/07/19 09:00:49;;;;;;;5.78;1.63;;;21.00;99.90;;;;;;5046652;28;20482;-42
2023/07/19 09:03:15;;;;;;;2.33;1.58;;;21.00;99.90;;;;;;5058030;28;20095;-41
2023/07/19 09:05:41;;;;;;;3.30;1.80;;;20.80;99.90;;;;;;5069458;28;20090;-41
2023/07/19 09:08:09;;;;;;;2.63;1.63;;;20.80;99.90;;;;;;5053317;28;20021;-40
2023/07/19 09:10:35;;;;;;;8.77;2.10;;;20.80;99.90;;;;;;5062198;28;20040;-40
2023/07/19 09:13:05;;;;;;;2.83;1.60;;;21.30;99.90;;;;;;5061491;28;20021;-41
2023/07/19 09:15:35;;;;;;;5.57;1.60;;;21.80;99.90;;;;;;5063888;28;20111;-42
2023/07/19 09:18:06;;;;;;;1.88;1.23;;;22.20;99.90;;;;;;5060061;28;20041;-40
2023/07/19 09:20:35;;;;;;;3.25;1.90;;;22.30;99.90;;;;;;5044459;28;20091;-42
2023/07/19 09:23:07;;;;;;;3.53;1.30;;;22.90;99.90;;;;;;5046897;28;20028;-40
2023/07/19 09:25:50;;;;;;;10.20;1.30;;;22.90;99.90;;;;;;5047127;28;20087;-43
2023/07/19 09:28:20;;;;;;;2.95;1.42;;;22.80;99.90;;;;;;5052956;28;20021;-47
2023/07/19 09:30:58;;;;;;;1.98;1.30;;;22.30;99.90;;;;;;5047384;28;20503;-41
2023/07/19 09:33:26;;;;;;;4.32;1.35;;;21.90;99.90;;;;;;5053080;28;20030;-41
2023/07/19 09:35:56;;;;;;;1.90;1.70;;;21.50;99.90;;;;;;5045054;28;20099;-44
2023/07/19 09:38:23;;;;;;;4.50;1.55;;;21.10;99.90;;;;;;5044805;28;20504;-43
2023/07/19 09:40:53;;;;;;;5.60;1.58;;;20.90;99.90;;;;;;5047599;28;20036;-41
2023/07/19 09:43:20;;;;;;;5.22;1.80;;;20.90;99.90;;;;;;5041857;28;20033;-39
2023/07/19 09:45:47;;;;;;;5.47;1.43;;;20.80;99.90;;;;;;5040929;28;20474;-42
2023/07/19 09:48:17;;;;;;;6.03;1.45;;;20.50;99.90;;;;;;5045177;28;20071;-40
2023/07/19 09:50:43;;;;;;;3.50;1.83;;;20.40;99.90;;;;;;5044885;28;20028;-38
2023/07/19 09:53:13;;;;;;;3.85;2.20;;;20.40;99.90;;;;;;5056735;28;20023;-43
2023/07/19 09:55:39;;;;;;;2.92;1.50;;;20.50;99.90;;;;;;5060361;28;20036;-40
2023/07/19 09:58:11;;;;;;;2.92;1.45;;;20.90;99.90;;;;;;5072771;28;20024;-41
2023/07/19 10:00:40;;;;;;;5.40;2.22;;;21.10;99.90;;;;;;5063984;28;20381;-41
2023/07/19 10:03:08;;;;;;;2.13;1.92;;;21.10;99.90;;;;;;5072656;28;20077;-40
2023/07/19 10:05:37;;;;;;;2.13;1.90;;;20.80;99.90;;;;;;5059074;28;20489;-41
2023/07/19 10:08:05;;;;;;;4.95;1.70;;;20.70;99.90;;;;;;5069953;28;20097;-41
2023/07/19 10:10:41;;;;;;;4.50;1.80;;;20.60;99.90;;;;;;5066350;28;20028;-42
2023/07/19 10:13:07;;;;;;;2.90;1.88;;;20.50;99.90;;;;;;5072596;28;20029;-41
2023/07/19 10:15:34;;;;;;;7.25;2.40;;;20.50;99.90;;;;;;5064244;28;20025;-40
2023/07/19 10:18:01;;;;;;;3.83;1.77;;;20.30;99.90;;;;;;5044824;28;20049;-42
2023/07/19 10:20:34;;;;;;;4.55;2.10;;;20.50;99.90;;;;;;5047775;28;20448;-39
2023/07/19 10:23:05;;;;;;;4.78;1.70;;;20.90;99.90;;;;;;5052783;28;20037;-39
2023/07/19 10:25:34;;;;;;;4.63;1.88;;;21.20;99.90;;;;;;5071400;28;20029;-40
2023/07/19 10:28:08;;;;;;;4.45;1.67;;;21.20;99.90;;;;;;5048757;28;20029;-40
2023/07/19 10:30:46;;;;;;;2.60;1.48;;;21.20;99.90;;;;;;5048098;28;20158;-40
2023/07/19 10:33:20;;;;;;;7.15;1.70;;;21.00;99.90;;;;;;5053678;28;20448;-41
2023/07/19 10:35:54;;;;;;;4.15;2.03;;;20.70;99.90;;;;;;5057837;28;20178;-43
2023/07/19 10:38:24;;;;;;;4.18;1.70;;;20.70;99.90;;;;;;5041380;28;20473;-40
2023/07/19 10:40:57;;;;;;;5.30;1.80;;;20.50;99.90;;;;;;5055737;28;20118;-41
2023/07/19 10:43:28;;;;;;;10.32;1.73;;;20.50;99.90;;;;;;5047091;28;20489;-40
2023/07/19 10:45:55;;;;;;;6.22;1.35;;;20.40;99.90;;;;;;5036146;28;20029;-45
2023/07/19 10:48:25;;;;;;;6.97;1.58;;;20.40;99.90;;;;;;5039814;28;20029;-42
2023/07/19 10:50:55;;;;;;;5.88;1.85;;;20.70;99.90;;;;;;5049932;28;20025;-41
2023/07/19 10:53:20;;;;;;;4.75;1.58;;;20.90;99.90;;;;;;5054957;28;20039;-38
2023/07/19 10:55:46;;;;;;;5.45;1.50;;;21.10;99.90;;;;;;5045968;28;20033;-44
2023/07/19 10:58:14;;;;;;;3.83;1.30;;;21.20;99.90;;;;;;5055250;28;20110;-40
2023/07/19 11:00:43;;;;;;;5.57;1.40;;;21.20;99.90;;;;;;5055925;28;20033;-40
2023/07/19 11:03:15;;;;;;;3.03;1.50;;;21.30;99.90;;;;;;5056220;28;20366;-43
2023/07/19 11:05:47;;;;;;;2.97;1.42;;;21.30;99.90;;;;;;5055500;28;20520;-48
2023/07/19 11:08:27;;;;;;;2.03;1.30;;;21.30;99.90;;;;;;5055925;28;20044;-43
2023/07/19 11:10:54;;;;;;;5.32;1.40;;;21.10;99.90;;;;;;5055740;28;20033;-46
2023/07/19 11:13:21;;;;;;;;;;;21.00;99.90;;;;;;5055445;28;20079;-42
2023/07/19 11:16:05;;;;;;;7.15;1.90;;;20.90;99.90;;;;;;5048550;28;19916;-42
2023/07/19 11:18:39;;;;;;;1.52;1.02;;;21.00;99.90;;;;;;5035676;28;20483;-41
2023/07/19 11:21:05;;;;;;;3.17;1.48;;;21.10;99.90;;;;;;5035391;28;20598;-39
2023/07/19 11:23:36;;;;;;;6.43;1.30;;;21.30;99.90;;;;;;5035363;28;20483;-43
2023/07/19 11:26:06;;;;;;;4.68;1.48;;;21.50;99.90;;;;;;5037148;28;20070;-42
2023/07/19 11:28:53;;;;;;;3.92;1.80;;;21.70;99.90;;;;;;5042757;28;20025;-42
2023/07/19 11:31:40;;;;;;;10.75;1.88;;;22.00;99.90;;;;;;5035830;28;20021;-45
2023/07/19 11:34:06;;;;;;;;;;;22.30;99.90;;;;;;5054133;28;20025;-39
2023/07/19 11:36:32;;;;;;;1.98;1.40;;;22.40;99.90;;;;;;5039602;28;20022;-46
2023/07/19 11:38:58;;;;;;;5.10;1.77;;;22.50;99.90;;;;;;5049933;28;20028;-39
2023/07/19 11:41:24;;;;;;;1.90;1.37;;;22.40;99.90;;;;;;5035987;28;20022;-45
2023/07/19 11:43:53;;;;;;;5.88;1.60;;;22.20;99.90;;;;;;5038475;28;20029;-43
2023/07/19 11:46:18;;;;;;;6.45;1.50;;;22.00;99.90;;;;;;5038808;28;20482;-43
2023/07/19 11:48:47;;;;;;;1.02;1.02;;;22.10;99.90;;;;;;5044063;28;20017;-40
2023/07/19 11:51:14;;;;;;;5.70;1.70;;;21.90;99.90;;;;;;5051792;28;20481;-38
2023/07/19 11:53:40;;;;;;;1.83;0.97;;;21.60;99.90;;;;;;5036634;28;20076;-41
2023/07/19 11:56:06;;;;;;;6.85;1.55;;;21.60;99.90;;;;;;5041911;28;20029;-41
2023/07/19 11:58:33;;;;;;;1.38;1.00;;;21.60;99.90;;;;;;5037172;28;20025;-41
2023/07/19 12:01:00;;;;;;;2.30;1.58;;;21.80;99.90;;;;;;5054267;28;20032;-39
2023/07/19 12:03:26;;;;;;;6.47;1.17;;;22.00;99.90;;;;;;5052835;28;20025;-40
2023/07/19 12:05:52;;;;;;;6.20;1.23;;;22.10;99.90;;;;;;5052718;28;20503;-43
2023/07/19 12:08:17;;;;;;;1.90;1.30;;;22.00;99.90;;;;;;5053415;28;20101;-42
2023/07/19 12:10:43;;;;;;;1.20;0.95;;;21.90;99.90;;;;;;5045162;28;20057;-40
2023/07/19 12:13:09;;;;;;;2.05;1.20;;;21.90;99.90;;;;;;5050799;28;20036;-42
2023/07/19 12:15:35;;;;;;;4.70;1.17;;;21.90;99.90;;;;;;5051642;28;20513;-39
2023/07/19 12:18:00;;;;;;;3.85;1.40;;;21.80;99.90;;;;;;5034849;28;20371;-40
2023/07/19 12:20:27;;;;;;;2.85;0.93;;;21.60;99.90;;;;;;5041247;28;20025;-41
2023/07/19 12:22:53;;;;;;;5.30;1.80;;;21.80;99.90;;;;;;5054121;28;20041;-43
2023/07/19 12:25:19;;;;;;;3.55;1.90;;;21.60;99.90;;;;;;5053691;28;20143;-44
2023/07/19 12:27:46;;;;;;;3.45;1.23;;;21.60;99.90;;;;;;5051551;28;20599;-41
2023/07/19 12:30:12;;;;;;;2.08;1.00;;;21.30;99.90;;;;;;5034370;28;20504;-40
2023/07/19 12:32:38;;;;;;;3.00;1.02;;;21.30;99.90;;;;;;5046964;28;20032;-39
2023/07/19 12:35:05;;;;;;;1.92;0.75;;;21.50;99.90;;;;;;5032657;28;20037;-43
2023/07/19 12:37:33;;;;;;;2.55;0.88;;;21.80;99.90;;;;;;5034931;28;20032;-42
2023/07/19 12:39:59;;;;;;;0.80;0.63;;;21.90;99.90;;;;;;5037938;28;20088;-43
2023/07/19 12:42:26;;;;;;;5.85;1.00;;;21.90;99.90;;;;;;5034100;28;20033;-40
2023/07/19 12:44:52;;;;;;;3.95;1.20;;;22.00;99.90;;;;;;5040820;28;20047;-42
2023/07/19 12:47:18;;;;;;;1.40;1.00;;;22.10;99.90;;;;;;5053908;28;20028;-40